Dades meteomassalio
Diari Summary for Diciembre 7, 2017 Units:  English    Metric   Both
« Previous Day
Next Day »
Diari Semanal Mensual Anual Personalitzat
  Maxima: Minima: Mijana:
Temperatura: 46.9 °F 17.1 °F 28 °F
Rosada: 33.8 °F 14.5 °F 22.6 °F
Humitat: 91 % 58 % 81 %
Velocitat del vent: 11 mph 0 mph 0.6 mph
Racha vent: 11 mph - -
Vent:- - SW
Pressio: 30.6 in 30.5 in -
Pluja: 0 in    
Historical Graphs
 
 
Tabular Data for Diciembre 7, 2017
Time Temperature Dew Point Pressure Wind Wind Speed Wind Gust Humidity Rainfall Rate (Hourly) solar Conditions
00:04 21.9 °F 18.7 °F 30.6 in WSW 3.5 mph 3.5 mph 87 % 0 in 0.0 W/m2 RA
00:09 21.9 °F 19 °F 30.6 in Calm     88 % 0 in 0.0 W/m2 CLR
00:14 21.9 °F 19 °F 30.6 in Calm     88 % 0 in 0.0 W/m2 CLR
00:19 21 °F 18 °F 30.6 in WSW 2.3 mph 2.3 mph 88 % 0 in 0.0 W/m2 CLR
00:24 21 °F 18 °F 30.6 in WSW 3.5 mph 3.5 mph 88 % 0 in 0.0 W/m2 CLR
00:29 21 °F 18 °F 30.6 in WSW 2.3 mph 2.3 mph 88 % 0 in 0.0 W/m2 CLR
00:34 21 °F 18 °F 30.6 in WSW 1.2 mph 1.2 mph 88 % 0 in 0.0 W/m2 CLR
00:39 21 °F 18 °F 30.6 in Calm     88 % 0 in 0.0 W/m2 CLR
00:44 21 °F 17.8 °F 30.6 in Calm     87 % 0 in 0.0 W/m2 CLR
00:49 21 °F 18 °F 30.6 in Calm     88 % 0 in 0.0 W/m2 CLR
00:54 21 °F 18 °F 30.6 in West 3.5 mph 3.5 mph 88 % 0 in 0.0 W/m2 CLR
00:59 21 °F 18 °F 30.6 in Calm     88 % 0 in 0.0 W/m2 CLR
01:04 21 °F 18 °F 30.6 in Calm     88 % 0 in 0.0 W/m2 CLR
01:05 21 °F 18 °F 30.6 in Calm     88 % 0 in 0.0 W/m2 CLR
01:10 21.9 °F 18.7 °F 30.6 in Calm     87 % 0 in 0.0 W/m2 CLR
01:15 21.9 °F 19 °F 30.6 in West 1.2 mph   88 % 0 in 0.0 W/m2 CLR
01:20 21 °F 18 °F 30.6 in West 1 mph 1 mph 88 % 0 in 0.0 W/m2 CLR
01:25 21 °F 18.3 °F 30.6 in West 2.3 mph 2.3 mph 89 % 0 in 0.0 W/m2 CLR
01:30 21 °F 18.3 °F 30.6 in West 2.3 mph 2.3 mph 89 % 0 in 0.0 W/m2 CLR
01:35 21 °F 18 °F 30.6 in Calm     88 % 0 in 0.0 W/m2 CLR
01:40 21 °F 18 °F 30.6 in Calm     88 % 0 in 0.0 W/m2 CLR
01:45 21 °F 18 °F 30.6 in Calm     88 % 0 in 0.0 W/m2 CLR
01:50 21.9 °F 19 °F 30.6 in Calm     88 % 0 in 0.0 W/m2 CLR
01:55 21.9 °F 19 °F 30.6 in West 3.5 mph 3.5 mph 88 % 0 in 0.0 W/m2 CLR
02:00 21.9 °F 19.2 °F 30.6 in WSW 4 mph 4 mph 89 % 0 in 0.0 W/m2 CLR
02:05 21 °F 18.3 °F 30.6 in WSW 3.5 mph 3.5 mph 89 % 0 in 0.0 W/m2 CLR
02:10 21 °F 18.3 °F 30.6 in Calm     89 % 0 in 0.0 W/m2 CLR
02:15 21 °F 18.3 °F 30.6 in Calm     89 % 0 in 0.0 W/m2 CLR
02:20 21 °F 18.3 °F 30.6 in WSW 1 mph 1 mph 89 % 0 in 0.0 W/m2 CLR
02:25 21 °F 18.3 °F 30.6 in Calm     89 % 0 in 0.0 W/m2 CLR
02:30 21 °F 18.3 °F 30.6 in Calm     89 % 0 in 0.0 W/m2 CLR
02:35 19.9 °F 17.4 °F 30.6 in Calm     90 % 0 in 0.0 W/m2 CLR
02:40 19.9 °F 17.2 °F 30.6 in Calm     89 % 0 in 0.0 W/m2 CLR
02:45 19.9 °F 17.2 °F 30.6 in Calm     89 % 0 in 0.0 W/m2 CLR
02:50 19.9 °F 17.2 °F 30.6 in Calm     89 % 0 in 0.0 W/m2 CLR
02:55 19.9 °F 17.2 °F 30.6 in West 3.5 mph 3.5 mph 89 % 0 in 0.0 W/m2 CLR
03:00 19.9 °F 17.2 °F 30.6 in Calm     89 % 0 in 0.0 W/m2 CLR
03:05 19.9 °F 17.4 °F 30.6 in Calm     90 % 0 in 0.0 W/m2 CLR
03:10 19.9 °F 17.4 °F 30.6 in West 1.2 mph   90 % 0 in 0.0 W/m2 CLR
03:15 19.9 °F 17.4 °F 30.6 in Calm     90 % 0 in 0.0 W/m2 CLR
03:20 19.9 °F 17.2 °F 30.6 in Calm     89 % 0 in 0.0 W/m2 CLR
03:25 19.9 °F 17.4 °F 30.6 in Calm     90 % 0 in 0.0 W/m2 CLR
03:30 19.9 °F 17.4 °F 30.6 in Calm     90 % 0 in 0.0 W/m2 CLR
03:35 19.9 °F 17.2 °F 30.6 in Calm     89 % 0 in 0.0 W/m2 CLR
03:40 19.9 °F 17.4 °F 30.6 in Calm     90 % 0 in 0.0 W/m2 CLR
03:45 19.9 °F 17.4 °F 30.6 in Calm     90 % 0 in 0.0 W/m2 CLR
03:50 19.9 °F 17.2 °F 30.6 in Calm     89 % 0 in 0.0 W/m2 CLR
03:55 19 °F 16.3 °F 30.6 in Calm     89 % 0 in 0.0 W/m2 CLR
04:00 19 °F 16.3 °F 30.6 in Calm     89 % 0 in 0.0 W/m2 CLR
04:05 19 °F 16.3 °F 30.6 in Calm     89 % 0 in 0.0 W/m2 CLR
04:11 19 °F 16.3 °F 30.6 in Calm     89 % 0 in 0.0 W/m2 CLR
04:16 19 °F 16.5 °F 30.6 in Calm     90 % 0 in 0.0 W/m2 CLR
04:21 19 °F 16.5 °F 30.6 in Calm     90 % 0 in 0.0 W/m2 CLR
04:22 19 °F 16.5 °F 30.6 in Calm     90 % 0 in 0.0 W/m2 CLR
04:23 19 °F 16.5 °F 30.6 in Calm     90 % 0 in 0.0 W/m2 CLR
04:28 19 °F 16.5 °F 30.6 in Calm     90 % 0 in 0.0 W/m2 CLR
04:33 19 °F 16.5 °F 30.6 in West 3.5 mph 3.5 mph 90 % 0 in 0.0 W/m2 CLR
04:38 19 °F 16.5 °F 30.6 in West 2.3 mph 2.3 mph 90 % 0 in 0.0 W/m2 CLR
04:43 19 °F 16.5 °F 30.6 in Calm     90 % 0 in 0.0 W/m2 CLR
04:48 18 °F 15.6 °F 30.6 in Calm     90 % 0 in 0.0 W/m2 CLR
04:53 18 °F 15.6 °F 30.6 in Calm     90 % 0 in 0.0 W/m2 CLR
05:03 18 °F 15.3 °F 30.6 in Calm     89 % 0 in 0.0 W/m2 CLR
05:08 18 °F 15.3 °F 30.6 in West 1.2 mph 1.2 mph 89 % 0 in 0.0 W/m2 CLR
05:13 18 °F 15.6 °F 30.6 in Calm     90 % 0 in 0.0 W/m2 CLR
05:18 18 °F 15.6 °F 30.6 in Calm     90 % 0 in 0.0 W/m2 CLR
05:23 18 °F 15.6 °F 30.6 in Calm     90 % 0 in 0.0 W/m2 CLR
05:28 19 °F 16.5 °F 30.6 in Calm     90 % 0 in 0.0 W/m2 CLR
05:33 19 °F 16.5 °F 30.6 in Calm     90 % 0 in 0.0 W/m2 CLR
05:38 19 °F 16.5 °F 30.6 in West 2.3 mph 2.3 mph 90 % 0 in 0.0 W/m2 CLR
05:43 19 °F 16.5 °F 30.6 in Calm     90 % 0 in 0.0 W/m2 CLR
05:48 19 °F 16.5 °F 30.6 in West 2.3 mph 2.3 mph 90 % 0 in 0.0 W/m2 CLR
05:53 19 °F 16.5 °F 30.6 in Calm     90 % 0 in 0.0 W/m2 CLR
05:58 19 °F 16.5 °F 30.6 in Calm     90 % 0 in 0.0 W/m2 CLR
06:03 19 °F 16.5 °F 30.6 in Calm     90 % 0 in 0.0 W/m2 CLR
06:08 19 °F 16.5 °F 30.6 in WSW 3.5 mph 3.5 mph 90 % 0 in 0.0 W/m2 CLR
06:13 19 °F 16.5 °F 30.6 in WSW 4 mph 4 mph 90 % 0 in 0.0 W/m2 CLR
06:18 19 °F 16.5 °F 30.6 in West 4.6 mph 4.6 mph 90 % 0 in 0.0 W/m2 CLR
06:23 18 °F 15.6 °F 30.6 in Calm     90 % 0 in 0.0 W/m2 CLR
06:28 18 °F 15.6 °F 30.6 in Calm     90 % 0 in 0.0 W/m2 CLR
06:33 18 °F 15.6 °F 30.6 in Calm     90 % 0 in 0.0 W/m2 CLR
06:38 18 °F 15.6 °F 30.6 in Calm     90 % 0 in 0.0 W/m2 CLR
06:43 18 °F 15.6 °F 30.6 in West 5.8 mph 5.8 mph 90 % 0 in 0.0 W/m2 CLR
06:48 18 °F 15.8 °F 30.6 in West 2.3 mph 2.3 mph 91 % 0 in 0.0 W/m2 CLR
06:53 18 °F 15.6 °F 30.6 in Calm     90 % 0 in 0.0 W/m2 CLR
06:58 18 °F 15.6 °F 30.6 in Calm     90 % 0 in 0.0 W/m2 CLR
07:03 18 °F 15.6 °F 30.6 in Calm     90 % 0 in 0.0 W/m2 CLR
07:08 18 °F 15.6 °F 30.6 in Calm     90 % 0 in 0.0 W/m2 CLR
07:13 17.1 °F 14.5 °F 30.6 in West 2.3 mph 2.3 mph 90 % 0 in 0.0 W/m2 CLR
07:15 17.1 °F 14.5 °F 30.6 in West 1.2 mph 1.2 mph 90 % 0 in 0.0 W/m2 CLR
07:20 17.1 °F 14.7 °F 30.6 in West 2.3 mph 2.3 mph 91 % 0 in 0.0 W/m2 CLR
07:25 17.1 °F 14.5 °F 30.6 in Calm     90 % 0 in 0.0 W/m2 CLR
07:30 18 °F 15.6 °F 30.6 in West 6 mph 6 mph 90 % 0 in 0.0 W/m2 CLR
07:35 18 °F 15.8 °F 30.6 in West 3.5 mph 3.5 mph 91 % 0 in 0.0 W/m2 CLR
07:40 18 °F 15.6 °F 30.6 in Calm     90 % 0 in 0.0 W/m2 CLR
07:45 18 °F 15.6 °F 30.6 in Calm     90 % 0 in 0.0 W/m2 CLR
07:50 17.1 °F 14.5 °F 30.6 in Calm     90 % 0 in 0.0 W/m2 CLR
07:55 18 °F 15.6 °F 30.6 in West 5.8 mph 5.8 mph 90 % 0 in 0.0 W/m2 CLR
08:00 18 °F 15.6 °F 30.6 in West 3.5 mph 3.5 mph 90 % 0 in 5.0 W/m2 CLR
08:05 19 °F 16.9 °F 30.6 in Calm     91 % 0 in 9.0 W/m2 OVC
08:10 19 °F 16.5 °F 30.6 in Calm     90 % 0 in 12.0 W/m2 OVC
08:15 19 °F 16.5 °F 30.6 in Calm     90 % 0 in 14.0 W/m2 BKN
08:20 19 °F 16.5 °F 30.6 in Calm     90 % 0 in 14.0 W/m2 BKN
08:25 19 °F 16.5 °F 30.6 in Calm     90 % 0 in 18.0 W/m2 BKN
08:30 19 °F 16.5 °F 30.6 in West 1.2 mph 1.2 mph 90 % 0 in 25.0 W/m2 BKN
08:35 19 °F 16.5 °F 30.6 in Calm     90 % 0 in 37.0 W/m2 BKN
08:40 19 °F 16.9 °F 30.6 in West 3.5 mph 3.5 mph 91 % 0 in 49.0 W/m2 SCT
08:45 19.9 °F 17.8 °F 30.6 in Calm     91 % 0 in 63.0 W/m2 SCT
08:50 19.9 °F 17.8 °F 30.6 in Calm     91 % 0 in 76.0 W/m2 FEW
08:55 21 °F 18.5 °F 30.6 in Calm     90 % 0 in 67.0 W/m2 FEW
09:00 21 °F 18.3 °F 30.6 in Calm     89 % 0 in 70.0 W/m2 FEW
09:01 21 °F 18.3 °F 30.6 in Calm     89 % 0 in 70.0 W/m2 FEW
09:06 21.9 °F 19.6 °F 30.6 in Calm     90 % 0 in 83.0 W/m2 FEW
09:11 21.9 °F 19.6 °F 30.6 in Calm     90 % 0 in 100.0 W/m2 CLR
09:16 21.9 °F 19.2 °F 30.6 in Calm     89 % 0 in 109.0 W/m2 CLR
09:21 23 °F 20.1 °F 30.6 in Calm     89 % 0 in 109.0 W/m2 CLR
09:26 24.1 °F 21.2 °F 30.6 in Calm     89 % 0 in 104.0 W/m2 CLR
09:31 24.1 °F 21.2 °F 30.6 in Calm     89 % 0 in 121.0 W/m2 CLR
09:36 24.1 °F 21.2 °F 30.6 in Calm     89 % 0 in 132.0 W/m2 CLR
09:41 25 °F 22.5 °F 30.6 in Calm     90 % 0 in 155.0 W/m2 CLR
09:46 25 °F 22.3 °F 30.6 in Calm     89 % 0 in 165.0 W/m2 CLR
09:51 26.1 °F 23.2 °F 30.6 in Calm     89 % 0 in 139.0 W/m2 CLR
09:56 26.1 °F 22.8 °F 30.6 in Calm     88 % 0 in 139.0 W/m2 CLR
10:01 27 °F 23.9 °F 30.6 in Calm     88 % 0 in 149.0 W/m2 CLR
10:06 27 °F 23.5 °F 30.6 in Calm     87 % 0 in 144.0 W/m2 CLR
10:11 28 °F 24.6 °F 30.6 in Calm     87 % 0 in 163.0 W/m2 CLR
10:16 28 °F 24.6 °F 30.6 in Calm     87 % 0 in 174.0 W/m2 CLR
10:21 28.9 °F 25.5 °F 30.6 in Calm     87 % 0 in 192.0 W/m2 CLR
10:26 28.9 °F 25.5 °F 30.6 in Calm     87 % 0 in 223.0 W/m2 CLR
10:31 28.9 °F 25.3 °F 30.6 in Calm     86 % 0 in 192.0 W/m2 CLR
10:36 30 °F 26.1 °F 30.6 in Calm     85 % 0 in 232.0 W/m2 CLR
10:41 30.9 °F 27 °F 30.6 in Calm     85 % 0 in 253.0 W/m2 CLR
10:46 30.9 °F 26.8 °F 30.6 in Calm     84 % 0 in 162.0 W/m2 CLR
10:51 32 °F 27.7 °F 30.6 in Calm     84 % 0 in 204.0 W/m2 CLR
10:56 32 °F 27.3 °F 30.6 in Calm     83 % 0 in 225.0 W/m2 CLR
11:01 33.1 °F 28.4 °F 30.6 in Calm     83 % 0 in 221.0 W/m2 CLR
11:06 33.1 °F 27.9 °F 30.6 in Calm     81 % 0 in 327.0 W/m2 CLR
11:11 34 °F 29.1 °F 30.6 in Calm     82 % 0 in 394.0 W/m2 CLR
11:16 35.1 °F 29.8 °F 30.6 in Calm     81 % 0 in 410.0 W/m2 CLR
11:21 35.1 °F 29.1 °F 30.6 in Calm     79 % 0 in 174.0 W/m2 CLR
11:26 36 °F 29.8 °F 30.6 in Calm     78 % 0 in 169.0 W/m2 CLR
11:31 36 °F 29.5 °F 30.6 in Calm     77 % 0 in 165.0 W/m2 CLR
11:36 36 °F 29.5 °F 30.6 in Calm     77 % 0 in 167.0 W/m2 CLR
11:41 37 °F 30.6 °F 30.6 in Calm     77 % 0 in 206.0 W/m2 CLR
11:46 37 °F 30.6 °F 30.6 in Calm     77 % 0 in 283.0 W/m2 CLR
11:51 37 °F 30.6 °F 30.6 in Calm     77 % 0 in 338.0 W/m2 CLR
11:56 37.9 °F 31.1 °F 30.6 in Calm     76 % 0 in 271.0 W/m2 CLR
12:01 37.9 °F 30.7 °F 30.6 in Calm     75 % 0 in 230.0 W/m2 CLR
12:06 37.9 °F 30.4 °F 30.6 in Calm     74 % 0 in 244.0 W/m2 CLR
12:11 37.9 °F 30 °F 30.6 in Calm     73 % 0 in 253.0 W/m2 CLR
12:16 39 °F 31.1 °F 30.6 in Calm     73 % 0 in 404.0 W/m2 CLR
12:21 39.9 °F 31.6 °F 30.6 in Calm     72 % 0 in 436.0 W/m2 CLR
12:26 41 °F 32.4 °F 30.6 in Calm     71 % 0 in 404.0 W/m2 CLR
12:31 41 °F 32 °F 30.6 in Calm     70 % 0 in 353.0 W/m2 CLR
12:36 42.1 °F 32.2 °F 30.6 in Calm     68 % 0 in 357.0 W/m2 CLR
12:41 42.1 °F 32.2 °F 30.6 in Calm     68 % 0 in 315.0 W/m2 CLR
12:46 43 °F 32.7 °F 30.6 in Calm     67 % 0 in 297.0 W/m2 CLR
12:51 43 °F 32.4 °F 30.6 in Calm     66 % 0 in 387.0 W/m2 CLR
12:56 43 °F 32.4 °F 30.6 in Calm   0.1 mph 66 % 0 in 359.0 W/m2 CLR
13:01 43 °F 32 °F 30.6 in Calm     65 % 0 in 359.0 W/m2 CLR
13:06 44.1 °F 33.1 °F 30.6 in Calm     65 % 0 in 350.0 W/m2 CLR
13:11 44.1 °F 32.5 °F 30.6 in Calm     64 % 0 in 290.0 W/m2 CLR
13:16 44.1 °F 32.5 °F 30.6 in Calm     64 % 0 in 246.0 W/m2 CLR
13:21 44.1 °F 32.2 °F 30.6 in East 2.3 mph 2.3 mph 63 % 0 in 420.0 W/m2 CLR
13:26 45 °F 32.7 °F 30.6 in East 3.5 mph 3.5 mph 62 % 0 in 353.0 W/m2 CLR
13:36 44.1 °F 32.2 °F 30.6 in ENE 3.5 mph 3.5 mph 63 % 0 in 248.0 W/m2 CLR
13:41 44.1 °F 32.2 °F 30.6 in East 6 mph 6 mph 63 % 0 in 262.0 W/m2 CLR
13:46 44.1 °F 32.2 °F 30.6 in ENE 8.1 mph 8.1 mph 63 % 0 in 227.0 W/m2 CLR
13:51 43 °F 31.6 °F 30.6 in ENE 5.8 mph 5.8 mph 64 % 0 in 239.0 W/m2 CLR
13:56 43 °F 32 °F 30.6 in ENE 3.5 mph 3.5 mph 65 % 0 in 359.0 W/m2 CLR
14:06 44.1 °F 33.1 °F 30.6 in East 11 mph 11 mph 65 % 0 in 197.0 W/m2 CLR
14:21 43 °F 32.7 °F 30.5 in NE 4 mph 4 mph 67 % 0 in 218.0 W/m2 CLR
14:26 43 °F 32.4 °F 30.5 in ENE 1.2 mph 1.2 mph 66 % 0 in 214.0 W/m2 CLR
14:31 43 °F 32.4 °F 30.5 in East 5.8 mph 5.8 mph 66 % 0 in 220.0 W/m2 CLR
14:36 43 °F 32.4 °F 30.5 in Calm     66 % 0 in 232.0 W/m2 CLR
14:46 44.1 °F 33.4 °F 30.5 in Calm     66 % 0 in 248.0 W/m2 CLR
14:51 44.1 °F 33.1 °F 30.5 in Calm     65 % 0 in 241.0 W/m2 CLR
14:56 44.1 °F 32.5 °F 30.5 in Calm     64 % 0 in 211.0 W/m2 CLR
15:01 45 °F 33.4 °F 30.5 in Calm     64 % 0 in 209.0 W/m2 CLR
15:06 45 °F 33.4 °F 30.5 in Calm     64 % 0 in 241.0 W/m2 CLR
15:07 45 °F 33.4 °F 30.5 in Calm     64 % 0 in 204.0 W/m2 CLR
15:12 45 °F 33.4 °F 30.5 in Calm     64 % 0 in 281.0 W/m2 CLR
15:17 45 °F 33.3 °F 30.5 in Calm     63 % 0 in 339.0 W/m2 CLR
15:22 46 °F 33.6 °F 30.5 in Calm     62 % 0 in 357.0 W/m2 CLR
15:25 46 °F 33.6 °F 30.5 in Calm     62 % 0 in 341.0 W/m2 CLR
15:33 46 °F 32.9 °F 30.5 in Calm     60 % 0 in 352.0 W/m2 CLR
15:38 46.9 °F 33.8 °F 30.5 in Calm     60 % 0 in 352.0 W/m2 CLR
15:43 46.9 °F 33.4 °F 30.5 in Calm     59 % 0 in 148.0 W/m2 CLR
15:48 46 °F 32.5 °F 30.5 in Calm     59 % 0 in 128.0 W/m2 CLR
15:53 46 °F 32.9 °F 30.5 in Calm     60 % 0 in 134.0 W/m2 CLR
15:58 46 °F 32.9 °F 30.5 in Calm     60 % 0 in 176.0 W/m2 CLR
16:03 46 °F 32.9 °F 30.5 in Calm     60 % 0 in 258.0 W/m2 CLR
16:08 46 °F 32.5 °F 30.5 in Calm     59 % 0 in 163.0 W/m2 CLR
16:18 45 °F 31.1 °F 30.5 in Calm     58 % 0 in 148.0 W/m2 CLR
16:23 45 °F 31.1 °F 30.5 in Calm     58 % 0 in 123.0 W/m2 CLR
16:25 45 °F 31.5 °F 30.5 in Calm     59 % 0 in 114.0 W/m2 CLR
16:30 44.1 °F 30.6 °F 30.5 in Calm     59 % 0 in 84.0 W/m2 CLR
16:35 44.1 °F 30.6 °F 30.5 in Calm     59 % 0 in 67.0 W/m2 FEW
16:50 43 °F 30 °F 30.5 in Calm     60 % 0 in 40.0 W/m2 SCT
16:55 42.1 °F 29.5 °F 30.5 in Calm     61 % 0 in 33.0 W/m2 BKN
17:00 42.1 °F 29.8 °F 30.5 in Calm     62 % 0 in 23.0 W/m2 BKN
17:05 41 °F 28.9 °F 30.5 in Calm     62 % 0 in 18.0 W/m2 BKN
17:10 39.9 °F 28.4 °F 30.5 in Calm     63 % 0 in 16.0 W/m2 BKN
17:15 39 °F 27.5 °F 30.5 in Calm     63 % 0 in 16.0 W/m2 BKN
17:20 37.9 °F 27 °F 30.5 in Calm     64 % 0 in 14.0 W/m2 BKN
17:25 37 °F 25.9 °F 30.5 in Calm     64 % 0 in 11.0 W/m2 BKN
17:35 36 °F 25.7 °F 30.5 in Calm     66 % 0 in 5.0 W/m2 OVC
17:40 36 °F 25.7 °F 30.5 in Calm     66 % 0 in 0.0 W/m2 OVC
17:45 35.1 °F 24.8 °F 30.5 in Calm     66 % 0 in 0.0 W/m2 CLR
17:50 35.1 °F 24.4 °F 30.5 in Calm     65 % 0 in 0.0 W/m2 CLR
17:55 34 °F 24.3 °F 30.5 in Calm     67 % 0 in 0.0 W/m2 CLR
18:00 34 °F 24.3 °F 30.5 in Calm     67 % 0 in 0.0 W/m2 CLR
18:05 34 °F 25 °F 30.5 in Calm     69 % 0 in 0.0 W/m2 CLR
18:15 33.1 °F 23.9 °F 30.5 in Calm     69 % 0 in 0.0 W/m2 CLR
18:20 33.1 °F 23.9 °F 30.5 in Calm     69 % 0 in 0.0 W/m2 CLR
18:25 32 °F 23.4 °F 30.5 in Calm     70 % 0 in 0.0 W/m2 CLR
18:26 32 °F 23.4 °F 30.5 in Calm     70 % 0 in 0.0 W/m2 CLR
18:31 32 °F 23.4 °F 30.5 in Calm     70 % 0 in 0.0 W/m2 CLR
18:36 33.1 °F 24.6 °F 30.5 in Calm     71 % 0 in 0.0 W/m2 CLR
18:41 33.1 °F 25 °F 30.5 in Calm     72 % 0 in 0.0 W/m2 CLR
18:46 33.1 °F 25 °F 30.5 in Calm     72 % 0 in 0.0 W/m2 CLR
18:51 33.1 °F 25.3 °F 30.5 in Calm     73 % 0 in 0.0 W/m2 CLR
18:56 33.1 °F 25.5 °F 30.5 in Calm     74 % 0 in 0.0 W/m2 CLR
19:01 32 °F 24.3 °F 30.5 in Calm     73 % 0 in 0.0 W/m2 CLR
19:22 30 °F 23 °F 30.5 in Calm     75 % 0 in 0.0 W/m2 CLR
19:27 30 °F 23 °F 30.5 in Calm     75 % 0 in 0.0 W/m2 CLR
19:32 30.9 °F 24.6 °F 30.5 in Calm     77 % 0 in 0.0 W/m2 CLR
19:43 30 °F 24.1 °F 30.5 in Calm     78 % 0 in 0.0 W/m2 CLR
19:48 28.9 °F 23 °F 30.5 in Calm     78 % 0 in 0.0 W/m2 CLR
19:53 28.9 °F 23.4 °F 30.5 in Calm     79 % 0 in 0.0 W/m2 CLR
19:58 28.9 °F 23.4 °F 30.5 in Calm     79 % 0 in 0.0 W/m2 CLR
20:03 28 °F 21.9 °F 30.5 in Calm     78 % 0 in 0.0 W/m2 CLR
20:08 28 °F 22.3 °F 30.5 in Calm     79 % 0 in 0.0 W/m2 CLR
20:13 27 °F 21.4 °F 30.5 in Calm     79 % 0 in 0.0 W/m2 CLR
20:18 27 °F 21.7 °F 30.5 in Calm     80 % 0 in 0.0 W/m2 CLR
20:23 27 °F 21.7 °F 30.5 in Calm     80 % 0 in 0.0 W/m2 CLR
20:28 27 °F 21.7 °F 30.5 in Calm     80 % 0 in 0.0 W/m2 CLR
20:38 26.1 °F 20.7 °F 30.5 in Calm     80 % 0 in 0.0 W/m2 CLR
20:43 27 °F 21.7 °F 30.5 in Calm     80 % 0 in 0.0 W/m2 CLR
20:48 27 °F 21.9 °F 30.5 in Calm     81 % 0 in 0.0 W/m2 CLR
20:58 27 °F 21.9 °F 30.5 in Calm     81 % 0 in 0.0 W/m2 CLR
21:08 27 °F 21.9 °F 30.5 in Calm     81 % 0 in 0.0 W/m2 CLR
21:13 27 °F 21.9 °F 30.5 in Calm     81 % 0 in 0.0 W/m2 CLR
21:18 26.1 °F 21 °F 30.5 in Calm     81 % 0 in 0.0 W/m2 CLR
21:28 26.1 °F 21.4 °F 30.5 in Calm     82 % 0 in 0.0 W/m2 CLR
21:33 26.1 °F 21.4 °F 30.5 in Calm     82 % 0 in 0.0 W/m2 CLR
21:38 25 °F 20.3 °F 30.5 in Calm     82 % 0 in 0.0 W/m2 CLR
21:43 25 °F 20.3 °F 30.5 in Calm     82 % 0 in 0.0 W/m2 CLR
21:49 25 °F 20.3 °F 30.5 in Calm     82 % 0 in 0.0 W/m2 CLR
21:54 25 °F 20.3 °F 30.5 in Calm     82 % 0 in 0.0 W/m2 CLR
21:59 25 °F 20.3 °F 30.5 in Calm     82 % 0 in 0.0 W/m2 CLR
22:04 25 °F 20.3 °F 30.5 in Calm     82 % 0 in 0.0 W/m2 CLR
22:14 25 °F 20.8 °F 30.5 in Calm     84 % 0 in 0.0 W/m2 CLR
22:19 25 °F 20.8 °F 30.5 in Calm     84 % 0 in 0.0 W/m2 CLR
22:29 24.1 °F 19.6 °F 30.5 in Calm     83 % 0 in 0.0 W/m2 CLR
22:34 24.1 °F 19.2 °F 30.5 in Calm     82 % 0 in 0.0 W/m2 CLR
22:39 24.1 °F 19.6 °F 30.5 in Calm     83 % 0 in 0.0 W/m2 CLR
22:44 25 °F 20.7 °F 30.5 in Calm     83 % 0 in 0.0 W/m2 CLR
22:49 26.1 °F 21.7 °F 30.5 in Calm     84 % 0 in 0.0 W/m2 CLR
22:54 25 °F 20.8 °F 30.5 in Calm     84 % 0 in 0.0 W/m2 CLR
22:59 25 °F 21 °F 30.5 in Calm     85 % 0 in 0.0 W/m2 CLR
23:05 25 °F 20.8 °F 30.5 in Calm     84 % 0 in 0.0 W/m2 CLR
23:10 25 °F 20.8 °F 30.5 in Calm     84 % 0 in 0.0 W/m2 CLR
23:15 24.1 °F 19.9 °F 30.5 in Calm     84 % 0 in 0.0 W/m2 CLR
23:20 24.1 °F 19.9 °F 30.5 in Calm     84 % 0 in 0.0 W/m2 CLR
23:25 24.1 °F 19.9 °F 30.5 in Calm     84 % 0 in 0.0 W/m2 CLR
23:30 24.1 °F 20.1 °F 30.5 in Calm     85 % 0 in 0.0 W/m2 CLR
23:35 25 °F 21 °F 30.5 in Calm     85 % 0 in 0.0 W/m2 CLR
23:40 25 °F 21 °F 30.5 in Calm     85 % 0 in 0.0 W/m2 CLR
23:45 25 °F 21.4 °F 30.5 in Calm     86 % 0 in 0.0 W/m2 CLR
23:46 25 °F 21.4 °F 30.5 in Calm     86 % 0 in 0.0 W/m2 CLR
23:51 25 °F 21.4 °F 30.5 in Calm     86 % 0 in 0.0 W/m2 CLR
23:56 24.1 °F 20.1 °F 30.5 in Calm     85 % 0 in 0.0 W/m2 CLR
Lo Temps de Massalio
Compliments of Weather Underground - 1.25 mb